Time;durP1;ratioP1;P1;durP2;ratioP2;P2;SDS_P1;SDS_P2;PMS_P1;PMS_P2;Temp;Humidity;BMP_temperature;BMP_pressure;BME280_temperature;BME280_humidity;BME280_pressure;Samples;Min_cycle;Max_cycle;Signal;HPM_P1;HPM_P2
2022/07/07 00:02:24;;;;;;;19.73;12.85;;;16.30;99.90;;;;;;5035332;28;20103;-81
2022/07/07 00:04:50;;;;;;;18.95;13.13;;;16.30;99.90;;;;;;5040615;28;20059;-83
2022/07/07 00:07:16;;;;;;;14.55;10.30;;;16.30;99.90;;;;;;5040959;28;20120;-83
2022/07/07 00:09:42;;;;;;;16.13;11.77;;;16.30;99.90;;;;;;5041807;28;20037;-83
2022/07/07 00:12:07;;;;;;;14.65;12.00;;;16.30;99.90;;;;;;5040851;28;20037;-82
2022/07/07 00:14:34;;;;;;;15.18;11.20;;;16.30;99.90;;;;;;5014699;28;20168;-83
2022/07/07 00:17:00;;;;;;;16.83;12.75;;;16.30;99.90;;;;;;5006367;28;20048;-83
2022/07/07 00:19:26;;;;;;;16.48;11.90;;;16.40;99.90;;;;;;5022257;28;20045;-82
2022/07/07 00:21:52;;;;;;;17.27;12.35;;;16.40;99.90;;;;;;5028367;28;20037;-83
2022/07/07 00:24:18;;;;;;;17.42;13.60;;;16.40;99.90;;;;;;5027395;28;20111;-84
2022/07/07 00:26:43;;;;;;;13.88;11.40;;;16.40;99.90;;;;;;5016807;28;20052;-84
2022/07/07 00:29:09;;;;;;;15.60;11.73;;;16.40;99.90;;;;;;5036280;28;20044;-84
2022/07/07 00:31:35;;;;;;;14.77;13.05;;;16.40;99.90;;;;;;5035271;28;20108;-84
2022/07/07 00:34:01;;;;;;;16.30;11.25;;;16.40;99.90;;;;;;5029583;28;20029;-84
2022/07/07 00:36:26;;;;;;;16.25;11.98;;;16.40;99.90;;;;;;5000684;28;20099;-83
2022/07/07 00:38:52;;;;;;;15.40;11.10;;;16.40;99.90;;;;;;5009677;28;20036;-84
2022/07/07 00:41:18;;;;;;;17.02;11.50;;;16.40;99.90;;;;;;5013452;28;20041;-84
2022/07/07 00:43:44;;;;;;;17.42;11.48;;;16.40;99.90;;;;;;5032840;28;20103;-83
2022/07/07 00:46:11;;;;;;;18.52;13.13;;;16.40;99.90;;;;;;5028882;28;20036;-83
2022/07/07 00:48:38;;;;;;;16.13;11.85;;;16.40;99.90;;;;;;5037660;28;20115;-83
2022/07/07 00:51:06;;;;;;;16.17;11.55;;;16.30;99.90;;;;;;5038474;28;20352;-83
2022/07/07 00:53:32;;;;;;;13.32;10.52;;;16.30;99.90;;;;;;5035352;28;20121;-83
2022/07/07 00:55:57;;;;;;;16.05;10.90;;;16.30;99.90;;;;;;5020727;28;20125;-83
2022/07/07 00:58:23;;;;;;;20.80;12.95;;;16.30;99.90;;;;;;5037772;28;20040;-83
2022/07/07 01:00:48;;;;;;;17.30;12.05;;;16.20;99.90;;;;;;5036005;28;20064;-84
2022/07/07 01:03:15;;;;;;;16.60;11.35;;;16.20;99.90;;;;;;5021786;28;20068;-85
2022/07/07 01:05:41;;;;;;;12.02;9.85;;;16.20;99.90;;;;;;5019730;28;20029;-84
2022/07/07 01:08:09;;;;;;;14.13;11.30;;;16.20;99.90;;;;;;5033446;28;20040;-84
2022/07/07 01:10:35;;;;;;;12.13;9.00;;;16.20;99.90;;;;;;5012293;28;20047;-84
2022/07/07 01:13:02;;;;;;;12.00;8.60;;;16.30;99.90;;;;;;5036034;28;20555;-84
2022/07/07 01:15:28;;;;;;;11.70;7.70;;;16.20;99.90;;;;;;5036204;28;20508;-84
2022/07/07 01:17:54;;;;;;;9.20;8.20;;;16.20;99.90;;;;;;5035456;28;20041;-84
2022/07/07 01:20:20;;;;;;;12.35;8.35;;;16.20;99.90;;;;;;5017724;28;20488;-83
2022/07/07 01:22:56;;;;;;;11.25;8.18;;;16.30;99.90;;;;;;4999071;28;20133;-84
2022/07/07 01:25:22;;;;;;;11.38;6.50;;;16.20;99.90;;;;;;5015789;28;20452;-84
2022/07/07 01:27:49;;;;;;;12.10;8.35;;;16.20;99.90;;;;;;5038152;28;20057;-81
2022/07/07 01:30:16;;;;;;;11.90;8.68;;;16.20;99.90;;;;;;5026729;28;20056;-81
2022/07/07 01:32:41;;;;;;;11.18;8.10;;;16.20;99.90;;;;;;5023934;28;20101;-82
2022/07/07 01:35:10;;;;;;;13.52;9.63;;;16.20;99.90;;;;;;5039045;28;20067;-82
2022/07/07 01:37:35;;;;;;;13.68;10.70;;;16.10;99.90;;;;;;5048927;28;20041;-81
2022/07/07 01:40:02;;;;;;;12.50;9.50;;;16.10;99.90;;;;;;5033382;28;20048;-81
2022/07/07 01:42:27;;;;;;;16.30;10.95;;;16.10;99.90;;;;;;5025651;28;20076;-82
2022/07/07 01:44:53;;;;;;;11.50;8.27;;;16.00;99.90;;;;;;5025924;28;20439;-81
2022/07/07 01:47:22;;;;;;;9.68;7.10;;;16.10;99.90;;;;;;5035981;28;20095;-81
2022/07/07 01:49:48;;;;;;;10.70;6.28;;;16.00;99.90;;;;;;5042324;28;20049;-82
2022/07/07 01:52:13;;;;;;;6.90;5.38;;;16.00;99.90;;;;;;5043551;28;20037;-82
2022/07/07 01:54:39;;;;;;;8.73;5.57;;;16.00;99.90;;;;;;5043368;28;20063;-83
2022/07/07 01:57:06;;;;;;;9.23;4.05;;;16.00;99.90;;;;;;5039710;28;20115;-82
2022/07/07 01:59:32;;;;;;;4.70;4.28;;;16.00;99.90;;;;;;5033865;28;20056;-83
2022/07/07 02:01:58;;;;;;;6.57;4.20;;;15.90;99.90;;;;;;5024489;28;20059;-83
2022/07/07 02:04:24;;;;;;;7.15;4.95;;;15.90;99.90;;;;;;5044582;28;20120;-83
2022/07/07 02:06:50;;;;;;;7.93;4.68;;;15.90;99.90;;;;;;5041617;28;20029;-83
2022/07/07 02:09:15;;;;;;;7.05;4.63;;;15.90;99.90;;;;;;5046562;28;20033;-82
2022/07/07 02:11:41;;;;;;;6.03;4.43;;;15.90;99.90;;;;;;5043725;28;20064;-81
2022/07/07 02:14:07;;;;;;;8.93;5.03;;;15.90;99.90;;;;;;5040027;28;20057;-82
2022/07/07 02:16:33;;;;;;;7.43;4.65;;;15.90;99.90;;;;;;5039258;28;20474;-81
2022/07/07 02:19:01;;;;;;;5.85;4.20;;;15.80;99.90;;;;;;5031907;28;20037;-82
2022/07/07 02:21:27;;;;;;;8.05;4.45;;;15.90;99.90;;;;;;5017978;28;20506;-83
2022/07/07 02:23:54;;;;;;;7.80;4.32;;;15.80;99.90;;;;;;5023014;28;20069;-83
2022/07/07 02:26:20;;;;;;;5.30;3.60;;;15.80;99.90;;;;;;5015702;28;20045;-82
2022/07/07 02:28:46;;;;;;;6.40;3.70;;;15.80;99.90;;;;;;5045006;28;20033;-83
2022/07/07 02:31:12;;;;;;;7.90;4.03;;;15.80;99.90;;;;;;5041483;28;20438;-83
2022/07/07 02:33:38;;;;;;;5.70;3.60;;;15.80;99.90;;;;;;5034092;28;20037;-84
2022/07/07 02:36:05;;;;;;;10.75;4.95;;;15.80;99.90;;;;;;5016695;28;20037;-83
2022/07/07 02:38:31;;;;;;;3.97;3.40;;;15.70;99.90;;;;;;5035992;28;20045;-83
2022/07/07 02:40:57;;;;;;;6.68;3.63;;;15.70;99.90;;;;;;5017626;28;20045;-83
2022/07/07 02:43:23;;;;;;;4.60;2.85;;;15.70;99.90;;;;;;4997757;28;20396;-83
2022/07/07 02:45:50;;;;;;;3.88;3.10;;;15.70;99.90;;;;;;5017496;28;20124;-83
2022/07/07 02:48:18;;;;;;;5.32;3.53;;;15.70;99.90;;;;;;5019458;28;20391;-83
2022/07/07 02:50:43;;;;;;;5.05;3.33;;;15.70;99.90;;;;;;5032326;28;20041;-81
2022/07/07 02:53:11;;;;;;;5.00;3.90;;;15.80;99.90;;;;;;5048983;28;20400;-81
2022/07/07 02:55:37;;;;;;;7.95;4.30;;;15.80;99.90;;;;;;5030617;28;20040;-81
2022/07/07 02:58:04;;;;;;;6.13;4.22;;;15.80;99.90;;;;;;5048309;28;20044;-82
2022/07/07 03:00:33;;;;;;;6.35;3.40;;;15.80;99.90;;;;;;5025986;28;20036;-83
2022/07/07 03:03:03;;;;;;;6.72;4.18;;;15.70;99.90;;;;;;5025407;28;20091;-83
2022/07/07 03:05:29;;;;;;;11.43;5.30;;;15.70;99.90;;;;;;5022534;28;20045;-84
2022/07/07 03:07:55;;;;;;;11.18;5.18;;;15.80;99.90;;;;;;5018387;28;20052;-84
2022/07/07 03:10:21;;;;;;;9.15;5.00;;;15.70;99.90;;;;;;5033658;28;20049;-84
2022/07/07 03:12:47;;;;;;;8.30;4.43;;;15.80;99.90;;;;;;5033759;28;20033;-84
2022/07/07 03:15:13;;;;;;;7.88;3.63;;;15.80;99.90;;;;;;5035009;28;20388;-84
2022/07/07 03:17:44;;;;;;;8.10;4.38;;;15.80;99.90;;;;;;5035964;28;20037;-84
2022/07/07 03:20:10;;;;;;;4.60;3.20;;;15.80;99.90;;;;;;5018015;28;20057;-84
2022/07/07 03:22:40;;;;;;;7.07;4.38;;;15.80;99.90;;;;;;5014350;28;20084;-84
2022/07/07 03:25:07;;;;;;;8.52;4.72;;;15.80;99.90;;;;;;5016563;28;20072;-84
2022/07/07 03:27:33;;;;;;;7.05;3.70;;;15.80;99.90;;;;;;5032539;28;20371;-84
2022/07/07 03:29:59;;;;;;;7.72;4.70;;;15.80;99.90;;;;;;5026079;28;20068;-84
2022/07/07 03:32:25;;;;;;;6.28;2.97;;;15.80;99.90;;;;;;5016495;28;20455;-84
2022/07/07 03:34:50;;;;;;;8.25;3.25;;;15.80;99.90;;;;;;5036961;28;20403;-84
2022/07/07 03:37:16;;;;;;;7.38;3.22;;;15.80;99.90;;;;;;5018506;28;20111;-84
2022/07/07 03:39:42;;;;;;;9.65;4.78;;;15.80;99.90;;;;;;5008828;28;20083;-85
2022/07/07 03:42:07;;;;;;;6.60;3.35;;;15.80;99.90;;;;;;5018137;28;20045;-84
2022/07/07 03:44:33;;;;;;;5.18;2.92;;;15.80;99.90;;;;;;5033148;28;20033;-83
2022/07/07 03:46:59;;;;;;;8.38;3.72;;;15.80;99.90;;;;;;5045137;28;20041;-82
2022/07/07 03:49:25;;;;;;;7.55;3.05;;;15.70;99.90;;;;;;5044621;28;20095;-82
2022/07/07 03:51:50;;;;;;;5.97;3.00;;;15.80;99.90;;;;;;5043648;28;20037;-83
2022/07/07 03:54:16;;;;;;;8.40;2.58;;;15.70;99.90;;;;;;5025904;28;20029;-81
2022/07/07 03:56:42;;;;;;;4.32;2.80;;;15.70;99.90;;;;;;5036599;28;20124;-81
2022/07/07 03:59:08;;;;;;;7.05;3.15;;;15.70;99.90;;;;;;5046480;28;20244;-82
2022/07/07 04:01:33;;;;;;;9.50;3.45;;;15.70;99.90;;;;;;5022167;28;20037;-82
2022/07/07 04:03:59;;;;;;;6.68;2.67;;;15.70;99.90;;;;;;5019614;28;20045;-79
2022/07/07 04:06:24;;;;;;;8.00;2.75;;;15.70;99.90;;;;;;5038669;28;20045;-80
2022/07/07 04:08:50;;;;;;;7.95;2.45;;;15.60;99.90;;;;;;5030820;28;20117;-79
2022/07/07 04:11:18;;;;;;;7.20;2.50;;;15.70;99.90;;;;;;5030993;28;20036;-79
2022/07/07 04:13:44;;;;;;;7.80;1.48;;;15.60;99.90;;;;;;5031535;28;20486;-79
2022/07/07 04:16:09;;;;;;;3.00;0.98;;;15.60;99.90;;;;;;5035989;28;20060;-81
2022/07/07 04:18:35;;;;;;;3.50;0.75;;;15.60;99.90;;;;;;5035120;28;20065;-81
2022/07/07 04:21:01;;;;;;;9.30;1.95;;;15.50;99.90;;;;;;5031875;28;20128;-81
2022/07/07 04:23:27;;;;;;;5.57;1.25;;;15.50;99.90;;;;;;5035578;28;20445;-79
2022/07/07 04:25:52;;;;;;;2.92;1.55;;;15.50;99.90;;;;;;5030493;28;20041;-80
2022/07/07 04:28:18;;;;;;;3.42;0.77;;;15.50;99.90;;;;;;5034900;28;20036;-82
2022/07/07 04:30:44;;;;;;;5.22;0.98;;;15.50;99.90;;;;;;5035064;28;20047;-82
2022/07/07 04:33:10;;;;;;;3.60;0.50;;;15.50;99.90;;;;;;5030310;28;20525;-82
2022/07/07 04:35:35;;;;;;;4.88;0.88;;;15.40;99.90;;;;;;5033643;28;20098;-84
2022/07/07 04:38:01;;;;;;;4.70;0.80;;;15.40;99.90;;;;;;5031897;28;20076;-83
2022/07/07 04:40:26;;;;;;;5.13;0.65;;;15.40;99.90;;;;;;5027106;28;20075;-83
2022/07/07 04:42:52;;;;;;;5.57;0.60;;;15.40;99.90;;;;;;5020819;28;20581;-82
2022/07/07 04:45:17;;;;;;;3.70;0.50;;;15.40;99.90;;;;;;5030233;28;20041;-83
2022/07/07 04:47:43;;;;;;;9.30;1.13;;;15.40;99.90;;;;;;5028835;28;20494;-83
2022/07/07 04:50:10;;;;;;;5.70;1.08;;;15.40;99.90;;;;;;5035027;28;20772;-84
2022/07/07 04:52:37;;;;;;;2.88;0.60;;;15.40;99.90;;;;;;5033030;28;20025;-84
2022/07/07 04:55:03;;;;;;;7.95;0.82;;;15.40;99.90;;;;;;5015210;28;20059;-84
2022/07/07 04:57:29;;;;;;;6.15;1.10;;;15.40;99.90;;;;;;5059062;22;20491;-84
2022/07/07 04:59:55;;;;;;;6.50;1.00;;;15.40;99.90;;;;;;5052022;28;20079;-83
2022/07/07 05:02:20;;;;;;;8.32;1.15;;;15.40;99.90;;;;;;5048000;28;20475;-84
2022/07/07 05:04:46;;;;;;;6.32;1.38;;;15.30;99.90;;;;;;5032684;28;20033;-83
2022/07/07 05:07:12;;;;;;;3.80;0.43;;;15.40;99.90;;;;;;5052294;28;20063;-83
2022/07/07 05:09:37;;;;;;;4.22;0.82;;;15.40;99.90;;;;;;5023789;28;20111;-83
2022/07/07 05:12:04;;;;;;;7.20;0.77;;;15.50;99.90;;;;;;5029243;28;20120;-82
2022/07/07 05:14:29;;;;;;;6.57;0.40;;;15.50;99.90;;;;;;5025308;28;20037;-83
2022/07/07 05:16:55;;;;;;;5.53;0.60;;;15.50;99.90;;;;;;5033673;28;20045;-82
2022/07/07 05:19:22;;;;;;;3.22;0.40;;;15.60;99.90;;;;;;5017246;28;20099;-83
2022/07/07 05:21:48;;;;;;;4.97;0.50;;;15.60;99.90;;;;;;5033512;28;20038;-82
2022/07/07 05:24:13;;;;;;;6.22;0.65;;;15.70;99.90;;;;;;5033489;28;20418;-82
2022/07/07 05:26:39;;;;;;;3.75;0.82;;;15.70;99.90;;;;;;5034720;28;20100;-80
2022/07/07 05:29:04;;;;;;;5.70;1.33;;;15.80;99.90;;;;;;5033219;28;20045;-81
2022/07/07 05:31:30;;;;;;;5.10;0.40;;;15.80;99.90;;;;;;5034840;28;20211;-81
2022/07/07 05:33:56;;;;;;;6.88;1.13;;;15.90;99.90;;;;;;5034232;28;20037;-83
2022/07/07 05:36:21;;;;;;;6.53;0.50;;;16.00;99.90;;;;;;5034353;28;20048;-80
2022/07/07 05:38:47;;;;;;;4.80;0.47;;;16.10;99.90;;;;;;5033298;28;20104;-80
2022/07/07 05:41:12;;;;;;;4.00;0.85;;;16.10;99.90;;;;;;5032794;28;20038;-80
2022/07/07 05:43:38;;;;;;;3.40;0.38;;;16.00;99.90;;;;;;5032352;28;20427;-80
2022/07/07 05:46:03;;;;;;;6.55;0.73;;;15.90;99.90;;;;;;5031999;28;20064;-79
2022/07/07 05:48:29;;;;;;;3.38;0.32;;;15.80;99.90;;;;;;5032932;28;20456;-80
2022/07/07 05:50:55;;;;;;;1.63;0.60;;;15.80;99.90;;;;;;5034541;28;20051;-81
2022/07/07 05:53:21;;;;;;;2.50;0.43;;;15.70;99.90;;;;;;5033605;28;20097;-81
2022/07/07 05:55:46;;;;;;;4.00;0.35;;;15.60;99.90;;;;;;5033772;28;20046;-81
2022/07/07 05:58:12;;;;;;;3.88;0.90;;;15.60;99.90;;;;;;5033874;28;20041;-81
2022/07/07 06:00:38;;;;;;;4.45;0.77;;;15.60;99.90;;;;;;5033000;28;20057;-80
2022/07/07 06:03:04;;;;;;;5.50;0.77;;;15.70;99.90;;;;;;5032296;28;20044;-79
2022/07/07 06:05:29;;;;;;;6.40;0.45;;;15.70;99.90;;;;;;5048461;28;20120;-79
2022/07/07 06:07:55;;;;;;;6.53;1.15;;;15.70;99.90;;;;;;5030737;28;20522;-80
2022/07/07 06:10:21;;;;;;;6.15;0.90;;;15.70;99.90;;;;;;5015980;28;20033;-81
2022/07/07 06:12:48;;;;;;;4.90;1.30;;;15.60;99.90;;;;;;5033860;28;20459;-81
2022/07/07 06:15:14;;;;;;;7.15;2.53;;;15.60;99.90;;;;;;5017042;28;20047;-82
2022/07/07 06:17:40;;;;;;;6.75;0.95;;;15.60;99.90;;;;;;5033911;28;20049;-81
2022/07/07 06:20:07;;;;;;;6.30;1.08;;;15.50;99.90;;;;;;5033036;28;20041;-80
2022/07/07 06:22:32;;;;;;;7.00;1.90;;;15.60;99.90;;;;;;5030381;28;20496;-81
2022/07/07 06:24:58;;;;;;;9.32;0.75;;;15.70;99.90;;;;;;5012459;28;20168;-81
2022/07/07 06:27:25;;;;;;;7.30;1.20;;;15.80;99.90;;;;;;5011572;28;20038;-80
2022/07/07 06:29:51;;;;;;;6.70;2.50;;;15.90;99.90;;;;;;4994963;28;20073;-79
2022/07/07 06:32:17;;;;;;;5.78;1.15;;;16.00;99.90;;;;;;5010876;28;20121;-79
2022/07/07 06:34:43;;;;;;;6.38;0.93;;;16.10;99.90;;;;;;5011004;28;20129;-79
2022/07/07 06:37:09;;;;;;;3.95;0.57;;;16.00;99.90;;;;;;5016978;28;20037;-80
2022/07/07 06:39:34;;;;;;;4.35;1.00;;;16.10;99.90;;;;;;5030603;28;20045;-81
2022/07/07 06:42:00;;;;;;;4.82;1.05;;;16.10;99.90;;;;;;5030485;28;20046;-78
2022/07/07 06:44:30;;;;;;;6.32;0.50;;;16.20;99.90;;;;;;5030723;28;20048;-79
2022/07/07 06:46:58;;;;;;;8.88;1.10;;;16.10;99.90;;;;;;5030533;28;20479;-80
2022/07/07 06:49:24;;;;;;;4.93;0.75;;;16.20;99.90;;;;;;5030414;28;20037;-78
2022/07/07 06:51:50;;;;;;;5.50;1.00;;;16.50;99.90;;;;;;5030162;28;20038;-79
2022/07/07 06:54:16;;;;;;;5.90;0.77;;;16.90;99.90;;;;;;5030479;28;20052;-79
2022/07/07 06:56:41;;;;;;;4.03;0.40;;;17.30;99.90;;;;;;5027813;28;20052;-80
2022/07/07 06:59:07;;;;;;;7.40;1.50;;;17.40;99.90;;;;;;5046103;28;20052;-79
2022/07/07 07:01:32;;;;;;;4.07;0.40;;;17.20;99.90;;;;;;5030137;28;20049;-79
2022/07/07 07:03:58;;;;;;;6.55;0.75;;;17.10;99.90;;;;;;5030265;28;20041;-78
2022/07/07 07:06:25;;;;;;;3.15;0.63;;;17.00;99.90;;;;;;5015498;28;20104;-79
2022/07/07 07:08:51;;;;;;;8.15;0.70;;;17.00;99.90;;;;;;5015592;28;20438;-77
2022/07/07 07:11:16;;;;;;;3.38;0.47;;;17.30;99.90;;;;;;5029840;28;20084;-78
2022/07/07 07:13:42;;;;;;;5.68;0.57;;;17.30;99.90;;;;;;5029671;28;20080;-78
2022/07/07 07:16:08;;;;;;;3.88;0.68;;;17.20;99.90;;;;;;5030000;28;20033;-80
2022/07/07 07:18:33;;;;;;;4.65;0.50;;;17.00;99.90;;;;;;5032070;28;20038;-82
2022/07/07 07:20:59;;;;;;;4.15;0.20;;;16.60;99.90;;;;;;5015174;28;20044;-81
2022/07/07 07:23:25;;;;;;;5.53;0.40;;;16.40;99.90;;;;;;5029057;28;20531;-82
2022/07/07 07:25:50;;;;;;;1.48;0.20;;;16.40;99.90;;;;;;5011566;28;20037;-82
2022/07/07 07:28:16;;;;;;;1.33;0.20;;;16.70;99.90;;;;;;5010729;28;20551;-83
2022/07/07 07:30:42;;;;;;;6.40;1.02;;;17.40;99.90;;;;;;5028398;28;20045;-81
2022/07/07 07:33:08;;;;;;;2.03;0.55;;;17.70;99.90;;;;;;5022822;28;20115;-80
2022/07/07 07:35:33;;;;;;;4.93;0.70;;;17.70;99.90;;;;;;5039084;28;20042;-81
2022/07/07 07:37:59;;;;;;;4.72;0.30;;;17.80;99.90;;;;;;5012356;28;20116;-79
2022/07/07 07:40:24;;;;;;;3.10;0.20;;;17.70;99.90;;;;;;5010575;28;20128;-83
2022/07/07 07:42:50;;;;;;;1.80;0.43;;;17.80;99.90;;;;;;5010163;28;20431;-79
2022/07/07 07:45:16;;;;;;;3.15;0.20;;;18.00;99.90;;;;;;5025587;28;20052;-79
2022/07/07 07:47:46;;;;;;;3.92;0.38;;;18.20;99.90;;;;;;5046143;28;20064;-79
2022/07/07 07:50:20;;;;;;;3.63;0.52;;;18.00;99.90;;;;;;5013815;28;20049;-82
2022/07/07 07:52:48;;;;;;;1.90;0.10;;;17.70;99.90;;;;;;5030787;28;20403;-81
2022/07/07 07:55:16;;;;;;;2.42;0.47;;;17.50;99.90;;;;;;5030857;28;20080;-80
2022/07/07 07:57:42;;;;;;;2.60;0.17;;;17.40;99.90;;;;;;5029983;28;20097;-81
2022/07/07 08:00:10;;;;;;;3.08;0.15;;;17.40;99.90;;;;;;5030514;28;20041;-80
2022/07/07 08:02:35;;;;;;;3.28;0.10;;;17.50;99.90;;;;;;5029791;28;20054;-82
2022/07/07 08:05:01;;;;;;;2.60;0.17;;;17.80;99.90;;;;;;5030037;28;20045;-80
2022/07/07 08:07:27;;;;;;;1.30;0.20;;;18.20;99.90;;;;;;5030138;28;20037;-79
2022/07/07 08:09:53;;;;;;;4.35;0.10;;;18.60;99.90;;;;;;5029460;28;20195;-79
2022/07/07 08:12:19;;;;;;;1.70;0.10;;;18.90;99.90;;;;;;5029634;28;20494;-81
2022/07/07 08:14:44;;;;;;;0.50;0.10;;;19.00;99.90;;;;;;5031287;28;20041;-83
2022/07/07 08:17:10;;;;;;;0.25;0.00;;;18.60;99.90;;;;;;5032037;28;20041;-83
2022/07/07 08:19:36;;;;;;;1.67;0.10;;;17.70;99.90;;;;;;5035483;28;20056;-79
2022/07/07 08:22:02;;;;;;;0.63;0.10;;;17.10;99.90;;;;;;5051880;28;20033;-81
2022/07/07 08:24:28;;;;;;;0.93;0.10;;;16.90;99.90;;;;;;5034504;28;20047;-82
2022/07/07 08:26:54;;;;;;;2.00;0.20;;;16.90;99.90;;;;;;5034439;28;20038;-82
2022/07/07 08:29:19;;;;;;;1.73;0.10;;;17.10;99.90;;;;;;5035461;28;20050;-80
2022/07/07 08:31:45;;;;;;;2.63;0.10;;;17.30;99.90;;;;;;5034072;28;20045;-81
2022/07/07 08:34:11;;;;;;;1.38;0.00;;;17.60;99.90;;;;;;5034361;28;20192;-82
2022/07/07 08:36:37;;;;;;;0.43;0.10;;;18.00;99.90;;;;;;5033976;28;20133;-80
2022/07/07 08:39:03;;;;;;;1.92;0.10;;;18.50;99.90;;;;;;5027470;28;20481;-80
2022/07/07 08:41:29;;;;;;;2.20;0.10;;;18.60;99.90;;;;;;5013395;28;20107;-80
2022/07/07 08:43:55;;;;;;;2.45;0.10;;;18.50;99.90;;;;;;5022291;28;20535;-80
2022/07/07 08:46:21;;;;;;;1.45;0.10;;;18.40;99.90;;;;;;5034370;28;20061;-81
2022/07/07 08:48:47;;;;;;;1.45;0.20;;;18.20;99.90;;;;;;5018333;28;20530;-82
2022/07/07 08:51:15;;;;;;;2.10;0.20;;;18.20;99.90;;;;;;5034742;28;20280;-80
2022/07/07 08:53:44;;;;;;;2.05;0.10;;;18.30;99.90;;;;;;5033623;28;20045;-80
2022/07/07 08:56:11;;;;;;;2.47;0.43;;;18.50;99.90;;;;;;5033265;28;20402;-79
2022/07/07 08:58:36;;;;;;;1.58;0.15;;;18.80;99.90;;;;;;5032727;28;20541;-79
2022/07/07 09:01:06;;;;;;;1.38;0.20;;;18.90;99.90;;;;;;5032850;28;20067;-80
2022/07/07 09:03:33;;;;;;;1.70;0.20;;;19.30;99.90;;;;;;5033206;28;20046;-79
2022/07/07 09:05:59;;;;;;;2.45;0.10;;;19.60;99.90;;;;;;5032523;28;20077;-80
2022/07/07 09:08:26;;;;;;;1.13;0.20;;;19.70;99.90;;;;;;5048873;28;20080;-82
2022/07/07 09:10:53;;;;;;;3.78;0.95;;;19.40;99.90;;;;;;5033777;28;20038;-82
2022/07/07 09:13:26;;;;;;;1.35;0.38;;;18.90;99.90;;;;;;5033098;28;20067;-81
2022/07/07 09:15:53;;;;;;;2.83;0.30;;;18.50;99.90;;;;;;4998514;28;20034;-82
2022/07/07 09:18:35;;;;;;;3.50;0.40;;;18.20;99.90;;;;;;4996598;28;20107;-82
2022/07/07 09:21:03;;;;;;;3.53;0.30;;;18.10;99.90;;;;;;5013546;28;20041;-82
2022/07/07 09:23:29;;;;;;;4.45;0.30;;;18.10;99.90;;;;;;5012674;28;20038;-82
2022/07/07 09:25:55;;;;;;;2.70;0.82;;;18.20;99.90;;;;;;5013528;28;20081;-83
2022/07/07 09:28:21;;;;;;;5.07;0.75;;;18.40;99.90;;;;;;5014024;28;20440;-82
2022/07/07 09:30:48;;;;;;;2.47;0.20;;;18.80;99.90;;;;;;5033484;28;20399;-82
2022/07/07 09:33:19;;;;;;;4.60;0.30;;;19.20;99.90;;;;;;5033732;28;20045;-82
2022/07/07 09:38:31;;;;;;;3.03;1.20;;;19.20;99.90;;;;;;5033390;28;20049;-79
2022/07/07 09:41:03;;;;;;;3.85;0.55;;;19.00;99.90;;;;;;5033416;28;20052;-83
2022/07/07 09:43:32;;;;;;;4.38;0.70;;;18.80;99.90;;;;;;5016416;28;20043;-82
2022/07/07 09:46:11;;;;;;;1.98;0.30;;;18.60;99.90;;;;;;5016664;28;20041;-83
2022/07/07 09:48:39;;;;;;;4.00;0.30;;;18.40;99.90;;;;;;5033125;28;20124;-82
2022/07/07 09:51:18;;;;;;;3.25;0.35;;;18.30;99.90;;;;;;5032906;28;20391;-83
2022/07/07 09:54:02;;;;;;;3.53;0.77;;;18.10;99.90;;;;;;5048914;28;20088;-83
2022/07/07 09:56:32;;;;;;;2.65;0.30;;;17.90;99.90;;;;;;5032339;28;20396;-83
2022/07/07 09:58:58;;;;;;;2.95;1.20;;;17.60;99.90;;;;;;5023950;28;20050;-83
2022/07/07 10:01:26;;;;;;;1.60;0.20;;;17.50;99.90;;;;;;5012178;28;20045;-83
2022/07/07 10:03:57;;;;;;;2.85;0.30;;;17.60;99.90;;;;;;4995715;28;20518;-83
2022/07/07 10:06:24;;;;;;;5.05;0.47;;;18.00;99.90;;;;;;5012204;28;20092;-83
2022/07/07 10:08:56;;;;;;;2.80;0.20;;;18.20;99.90;;;;;;5029545;28;20049;-82
2022/07/07 10:11:24;;;;;;;2.10;0.40;;;18.50;99.90;;;;;;5032154;28;20056;-82
2022/07/07 10:13:51;;;;;;;2.90;0.30;;;19.10;99.90;;;;;;5031438;28;20523;-82
2022/07/07 10:16:16;;;;;;;4.80;0.47;;;19.20;99.90;;;;;;5032467;28;20029;-81
2022/07/07 10:18:43;;;;;;;6.45;0.63;;;19.00;99.90;;;;;;5015016;28;20426;-82
2022/07/07 10:21:09;;;;;;;6.38;0.55;;;18.60;99.90;;;;;;5032403;28;20041;-81
2022/07/07 10:23:35;;;;;;;5.20;0.70;;;18.20;99.90;;;;;;5032166;28;20220;-81
2022/07/07 10:26:02;;;;;;;6.55;0.57;;;18.00;99.90;;;;;;5032170;28;20049;-81
2022/07/07 10:28:56;;;;;;;1.70;0.28;;;17.80;99.90;;;;;;5031409;28;20381;-82
2022/07/07 10:31:27;;;;;;;1.65;0.50;;;17.70;99.90;;;;;;5031946;28;20116;-81
2022/07/07 10:34:05;;;;;;;1.80;0.20;;;17.80;99.90;;;;;;5031297;28;20046;-80
2022/07/07 10:36:45;;;;;;;1.38;0.22;;;18.30;99.90;;;;;;5031410;28;20076;-81
2022/07/07 10:39:16;;;;;;;5.55;0.65;;;18.50;99.90;;;;;;5032167;28;20194;-80
2022/07/07 10:41:53;;;;;;;2.50;0.45;;;18.70;99.90;;;;;;5031392;28;20090;-81
2022/07/07 10:44:20;;;;;;;2.15;0.68;;;18.60;99.90;;;;;;5031352;28;20087;-83
2022/07/07 10:46:58;;;;;;;3.00;0.65;;;18.30;99.90;;;;;;5031120;28;20052;-83
2022/07/07 10:49:46;;;;;;;3.65;0.30;;;18.00;99.90;;;;;;5031422;28;20076;-83
2022/07/07 10:52:17;;;;;;;3.60;1.08;;;17.50;99.90;;;;;;5031043;28;20436;-83
2022/07/07 10:55:02;;;;;;;5.70;1.17;;;17.10;99.90;;;;;;5032111;28;20227;-83
2022/07/07 10:57:50;;;;;;;5.50;0.45;;;17.00;99.90;;;;;;5020234;28;20045;-83
2022/07/07 11:00:26;;;;;;;8.35;1.15;;;17.00;99.90;;;;;;5031604;28;20064;-82
2022/07/07 11:03:08;;;;;;;5.55;0.77;;;16.90;99.90;;;;;;5028743;28;20041;-83
2022/07/07 11:05:35;;;;;;;10.00;1.67;;;17.00;99.90;;;;;;5031159;28;20049;-83
2022/07/07 11:08:03;;;;;;;10.10;1.25;;;17.00;99.90;;;;;;5030557;28;20053;-84
2022/07/07 11:10:42;;;;;;;5.68;1.25;;;17.00;99.90;;;;;;5031035;28;20040;-83
2022/07/07 11:13:19;;;;;;;8.05;1.35;;;17.10;99.90;;;;;;5030148;28;20073;-82
2022/07/07 11:16:03;;;;;;;8.65;2.08;;;17.10;99.90;;;;;;5030897;28;20072;-81
2022/07/07 11:18:34;;;;;;;8.50;2.33;;;17.00;99.90;;;;;;5030945;28;20037;-81
2022/07/07 11:21:02;;;;;;;8.45;1.80;;;17.20;99.90;;;;;;5031980;28;20063;-81
2022/07/07 11:23:56;;;;;;;6.20;1.23;;;17.30;99.90;;;;;;5031983;28;20050;-80
2022/07/07 11:26:24;;;;;;;5.80;1.10;;;17.60;99.90;;;;;;5033166;28;20065;-80
2022/07/07 11:28:55;;;;;;;11.75;2.28;;;17.70;99.90;;;;;;5034055;28;20037;-80
2022/07/07 11:31:21;;;;;;;7.05;1.40;;;17.80;99.90;;;;;;5016490;28;20091;-81
2022/07/07 11:33:53;;;;;;;8.60;1.13;;;18.00;99.90;;;;;;5033981;28;20038;-79
2022/07/07 11:36:22;;;;;;;5.68;1.10;;;18.20;99.90;;;;;;5032798;28;20522;-80
2022/07/07 11:38:53;;;;;;;3.65;0.70;;;18.40;99.90;;;;;;5017426;28;20099;-79
2022/07/07 11:41:18;;;;;;;5.68;1.05;;;18.10;99.90;;;;;;5033358;28;20046;-80
2022/07/07 11:43:53;;;;;;;7.05;1.65;;;18.10;99.90;;;;;;5032325;28;20034;-79
2022/07/07 11:46:22;;;;;;;9.85;0.77;;;17.80;99.90;;;;;;5033130;28;20061;-78
2022/07/07 11:48:48;;;;;;;5.75;0.93;;;17.70;99.90;;;;;;5033689;28;20045;-79
2022/07/07 11:51:14;;;;;;;7.10;1.00;;;17.60;99.90;;;;;;5032371;28;20033;-79
2022/07/07 11:53:39;;;;;;;9.38;1.23;;;17.50;99.90;;;;;;5035876;28;20069;-78
2022/07/07 11:56:06;;;;;;;5.20;0.90;;;17.40;99.90;;;;;;5035679;28;20037;-78
2022/07/07 11:58:32;;;;;;;9.38;0.95;;;17.40;99.90;;;;;;5019847;28;20044;-77
2022/07/07 12:00:59;;;;;;;7.57;1.73;;;17.50;99.90;;;;;;5036006;28;20065;-78
2022/07/07 12:03:34;;;;;;;11.70;0.80;;;17.50;99.90;;;;;;5035730;28;20037;-78
2022/07/07 12:06:01;;;;;;;8.07;1.23;;;17.60;99.90;;;;;;5019671;28;20044;-78
2022/07/07 12:08:35;;;;;;;6.32;0.55;;;17.70;99.90;;;;;;5016582;28;20436;-78
2022/07/07 12:11:01;;;;;;;4.10;1.23;;;17.90;99.90;;;;;;5017033;28;20037;-78
2022/07/07 12:13:27;;;;;;;4.57;1.10;;;18.20;99.90;;;;;;5015267;28;20073;-78
2022/07/07 12:15:57;;;;;;;4.68;0.70;;;18.40;99.90;;;;;;5016352;28;20049;-78
2022/07/07 12:18:41;;;;;;;3.95;0.40;;;18.50;99.90;;;;;;5015870;28;20038;-79
2022/07/07 12:21:12;;;;;;;5.72;0.98;;;18.90;99.90;;;;;;5016381;28;20038;-78
2022/07/07 12:23:41;;;;;;;4.65;0.50;;;19.10;99.90;;;;;;5032864;28;20037;-78
2022/07/07 12:26:07;;;;;;;8.38;0.93;;;19.00;99.90;;;;;;5018271;28;20084;-78
2022/07/07 12:28:35;;;;;;;3.83;0.63;;;19.00;99.90;;;;;;5036088;28;20041;-78
2022/07/07 12:31:00;;;;;;;12.95;0.75;;;19.00;99.90;;;;;;5036025;28;20510;-78
2022/07/07 12:33:39;;;;;;;6.75;1.38;;;18.90;99.90;;;;;;5034454;28;20075;-78
2022/07/07 12:36:14;;;;;;;4.70;1.08;;;18.80;99.90;;;;;;5036541;28;20045;-78
2022/07/07 12:38:43;;;;;;;6.28;1.15;;;19.00;99.90;;;;;;5034614;28;20171;-78
2022/07/07 12:41:09;;;;;;;3.58;0.73;;;19.50;99.90;;;;;;5018993;28;20086;-78
2022/07/07 12:43:36;;;;;;;5.43;0.40;;;19.60;99.90;;;;;;5049726;28;20403;-78
2022/07/07 12:46:11;;;;;;;5.80;0.68;;;19.40;99.90;;;;;;5017489;28;20080;-78
2022/07/07 12:48:44;;;;;;;;;;;19.10;99.90;;;;;;5034846;28;20049;-78
2022/07/07 12:51:10;;;;;;;5.15;0.85;;;18.60;99.90;;;;;;5034208;28;19924;-78